createdAt,value
2017-04-14T00:00:25.397Z,40.03
2017-04-14T00:01:25.423Z,40.12
2017-04-14T00:02:25.451Z,40.03
2017-04-14T00:03:25.484Z,40.03
2017-04-14T00:04:25.197Z,40.03
2017-04-14T00:05:25.222Z,39.94
2017-04-14T00:06:25.242Z,39.94
2017-04-14T00:07:25.588Z,40.03
2017-04-14T00:08:25.297Z,39.94
2017-04-14T00:09:25.337Z,40.22
2017-04-14T00:10:25.673Z,39.84
2017-04-14T00:11:25.699Z,39.84
2017-04-14T00:12:25.723Z,40.12
2017-04-14T00:13:25.441Z,40.32
2017-04-14T00:14:25.793Z,39.84
2017-04-14T00:15:25.807Z,39.94
2017-04-14T00:16:25.839Z,40.12
2017-04-14T00:17:25.856Z,39.84
2017-04-14T00:18:26.141Z,40.03
2017-04-14T00:19:25.918Z,40.03
2017-04-14T00:20:25.942Z,40.03
2017-04-14T00:21:25.981Z,39.84
2017-04-14T00:22:26.000Z,39.84
2017-04-14T00:23:26.282Z,39.84
2017-04-14T00:24:26.056Z,39.84
2017-04-14T00:25:26.078Z,39.84
2017-04-14T00:26:26.107Z,39.84
2017-04-14T00:27:26.131Z,40.03
2017-04-14T00:28:26.095Z,39.74
2017-04-14T00:29:26.189Z,39.84
2017-04-14T00:30:26.213Z,39.74
2017-04-14T00:31:26.240Z,39.74
2017-04-14T00:32:26.262Z,39.84
2017-04-14T00:33:26.546Z,39.74
2017-04-14T00:34:26.325Z,39.84
2017-04-14T00:35:26.354Z,39.64
2017-04-14T00:36:26.377Z,39.84
2017-04-14T00:37:26.407Z,39.84
2017-04-14T00:38:26.378Z,39.74
2017-04-14T00:39:26.460Z,39.74
2017-04-14T00:40:26.489Z,39.64
2017-04-14T00:41:26.198Z,39.64
2017-04-14T00:42:26.220Z,39.94
2017-04-14T00:43:26.510Z,39.74
2017-04-14T00:44:26.599Z,39.74
2017-04-14T00:45:26.666Z,39.64
2017-04-14T00:46:26.649Z,39.74
2017-04-14T00:47:26.726Z,39.64
2017-04-14T00:48:26.651Z,39.74
2017-04-14T00:49:26.732Z,39.84
2017-04-14T00:50:26.761Z,39.74
2017-04-14T00:51:26.790Z,39.64
2017-04-14T00:52:26.813Z,39.74
2017-04-14T00:53:27.094Z,39.64
2017-04-14T00:54:26.868Z,39.94
2017-04-14T00:55:26.896Z,39.74
2017-04-14T00:56:26.925Z,39.74
2017-04-14T00:57:26.950Z,39.54
2017-04-14T00:58:27.232Z,39.94
2017-04-14T00:59:27.004Z,39.84
2017-04-14T01:00:26.721Z,40.22
2017-04-14T01:01:27.058Z,40.22
2017-04-14T01:02:27.091Z,39.84
2017-04-14T01:03:27.114Z,39.84
2017-04-14T01:04:27.144Z,39.94
2017-04-14T01:05:27.169Z,40.03
2017-04-14T01:06:27.199Z,40.03
2017-04-14T01:07:27.225Z,39.74
2017-04-14T01:08:27.254Z,39.94
2017-04-14T01:09:27.279Z,39.94
2017-04-14T01:10:27.305Z,39.94
2017-04-14T01:11:27.334Z,39.94
2017-04-14T01:12:27.363Z,40.03
2017-04-14T01:13:27.067Z,40.12
2017-04-14T01:14:27.415Z,40.03
2017-04-14T01:15:27.435Z,39.84
2017-04-14T01:16:27.467Z,40.03
2017-04-14T01:17:27.496Z,39.94
2017-04-14T01:18:27.514Z,40.12
2017-04-14T01:19:27.595Z,40.42
2017-04-14T01:20:27.265Z,39.94
2017-04-14T01:21:27.600Z,39.94
2017-04-14T01:22:27.633Z,40.03
2017-04-14T01:23:27.654Z,39.84
2017-04-14T01:24:27.686Z,40.22
2017-04-14T01:25:27.715Z,40.32
2017-04-14T01:26:27.733Z,40.32
2017-04-14T01:27:27.768Z,39.94
2017-04-14T01:28:27.476Z,39.74
2017-04-14T01:29:27.822Z,40.12
2017-04-14T01:30:27.540Z,39.84
2017-04-14T01:31:27.872Z,40.22
2017-04-14T01:32:27.903Z,39.74
2017-04-14T01:33:27.929Z,40.03
2017-04-14T01:34:27.959Z,40.22
2017-04-14T01:35:27.991Z,40.32
2017-04-14T01:36:28.012Z,40.03
2017-04-14T01:37:27.725Z,40.12
2017-04-14T01:38:28.061Z,40.03
2017-04-14T01:39:28.097Z,39.84
2017-04-14T01:40:28.121Z,39.84
2017-04-14T01:41:28.145Z,39.64
2017-04-14T01:42:28.177Z,40.03
2017-04-14T01:43:28.200Z,39.94
2017-04-14T01:44:28.231Z,40.12
2017-04-14T01:45:28.258Z,39.54
2017-04-14T01:46:27.975Z,39.74
2017-04-14T01:47:28.313Z,39.72
2017-04-14T01:48:28.340Z,39.74
2017-04-14T01:49:28.365Z,39.94
2017-04-14T01:50:28.073Z,39.84
2017-04-14T01:51:28.418Z,39.43
2017-04-14T01:52:28.141Z,39.64
2017-04-14T01:53:28.165Z,39.72
2017-04-14T01:54:28.501Z,39.74
2017-04-14T01:55:28.526Z,39.72
2017-04-14T01:56:28.559Z,40.01
2017-04-14T01:57:28.583Z,39.45
2017-04-14T01:58:28.304Z,39.74
2017-04-14T01:59:28.324Z,39.54
2017-04-14T02:00:28.661Z,39.94
2017-04-14T02:01:28.693Z,39.64
2017-04-14T02:02:28.718Z,39.64
2017-04-14T02:03:28.743Z,39.84
2017-04-14T02:04:28.768Z,39.82
2017-04-14T02:05:28.800Z,39.82
2017-04-14T02:06:28.818Z,39.82
2017-04-14T02:07:28.850Z,39.64
2017-04-14T02:08:28.884Z,39.62
2017-04-14T02:09:28.592Z,39.84
2017-04-14T02:10:28.625Z,39.91
2017-04-14T02:11:28.965Z,39.43
2017-04-14T02:12:28.991Z,39.64
2017-04-14T02:13:29.014Z,39.82
2017-04-14T02:14:28.982Z,39.72
2017-04-14T02:15:29.073Z,39.72
2017-04-14T02:16:28.789Z,39.62
2017-04-14T02:17:29.126Z,39.82
2017-04-14T02:18:28.838Z,39.62
2017-04-14T02:19:29.432Z,39.72
2017-04-14T02:20:29.203Z,39.72
2017-04-14T02:21:29.233Z,39.72
2017-04-14T02:22:29.261Z,39.64
2017-04-14T02:23:29.279Z,39.62
2017-04-14T02:24:29.255Z,39.72
2017-04-14T02:25:29.345Z,39.72
2017-04-14T02:26:29.365Z,39.82
2017-04-14T02:27:29.399Z,39.72
2017-04-14T02:28:29.114Z,39.62
2017-04-14T02:29:29.702Z,39.72
2017-04-14T02:30:29.476Z,39.62
2017-04-14T02:31:29.509Z,39.82
2017-04-14T02:32:29.533Z,39.72
2017-04-14T02:33:29.563Z,39.72
2017-04-14T02:34:29.835Z,39.62
2017-04-14T02:35:29.612Z,39.62
2017-04-14T02:36:29.329Z,39.82
2017-04-14T02:37:29.666Z,39.91
2017-04-14T02:38:29.694Z,39.72
2017-04-14T02:39:29.974Z,39.62
2017-04-14T02:40:29.750Z,39.82
2017-04-14T02:41:29.775Z,39.72
2017-04-14T02:42:29.799Z,39.82
2017-04-14T02:43:29.833Z,39.72
2017-04-14T02:44:29.798Z,39.82
2017-04-14T02:45:29.882Z,39.72
2017-04-14T02:46:29.597Z,39.62
2017-04-14T02:47:29.941Z,39.72
2017-04-14T02:48:29.965Z,39.72
2017-04-14T02:49:30.246Z,39.72
2017-04-14T02:50:30.023Z,39.91
2017-04-14T02:51:29.734Z,40.01
2017-04-14T02:52:30.075Z,39.62
2017-04-14T02:53:29.789Z,39.62
2017-04-14T02:54:30.382Z,39.84
2017-04-14T02:55:30.153Z,39.72
2017-04-14T02:56:30.186Z,40.01
2017-04-14T02:57:30.205Z,39.91
2017-04-14T02:58:29.924Z,39.72
2017-04-14T02:59:30.266Z,39.72
2017-04-14T03:00:30.291Z,39.82
2017-04-14T03:01:30.321Z,39.62
2017-04-14T03:02:30.344Z,39.82
2017-04-14T03:03:30.060Z,39.72
2017-04-14T03:04:30.400Z,40.01
2017-04-14T03:05:30.426Z,39.62
2017-04-14T03:06:30.454Z,39.91
2017-04-14T03:07:30.171Z,39.62
2017-04-14T03:08:30.520Z,39.82
2017-04-14T03:09:30.226Z,39.82
2017-04-14T03:10:30.562Z,39.82
2017-04-14T03:11:30.587Z,39.62
2017-04-14T03:12:30.625Z,39.72
2017-04-14T03:13:30.653Z,39.72
2017-04-14T03:14:30.677Z,39.62
2017-04-14T03:15:30.701Z,39.62
2017-04-14T03:16:30.727Z,39.62
2017-04-14T03:17:30.750Z,39.72
2017-04-14T03:18:30.775Z,39.62
2017-04-14T03:19:30.805Z,39.82
2017-04-14T03:20:30.829Z,39.91
2017-04-14T03:21:30.858Z,39.82
2017-04-14T03:22:30.879Z,40.01
2017-04-14T03:23:30.917Z,39.62
2017-04-14T03:24:30.940Z,39.82
2017-04-14T03:25:30.970Z,40.01
2017-04-14T03:26:30.989Z,39.91
2017-04-14T03:27:31.023Z,39.62
2017-04-14T03:28:31.051Z,39.72
2017-04-14T03:29:30.763Z,40.01
2017-04-14T03:30:31.105Z,39.91
2017-04-14T03:31:31.122Z,39.91
2017-04-14T03:32:31.154Z,39.82
2017-04-14T03:33:31.190Z,40.01
2017-04-14T03:34:31.212Z,39.91
2017-04-14T03:35:31.240Z,39.62
2017-04-14T03:36:31.266Z,39.91
2017-04-14T03:37:30.984Z,40.01
2017-04-14T03:38:31.316Z,40.01
2017-04-14T03:39:31.345Z,39.91
2017-04-14T03:40:31.377Z,39.62
2017-04-14T03:41:31.402Z,39.82
2017-04-14T03:42:31.425Z,39.91
2017-04-14T03:43:31.143Z,40.01
2017-04-14T03:44:31.478Z,40.01
2017-04-14T03:45:31.508Z,40.01
2017-04-14T03:46:31.225Z,39.72
2017-04-14T03:47:31.566Z,39.72
2017-04-14T03:48:31.279Z,40.01
2017-04-14T03:49:31.308Z,39.91
2017-04-14T03:50:31.647Z,39.62
2017-04-14T03:51:31.677Z,39.72
2017-04-14T03:52:31.694Z,39.62
2017-04-14T03:53:31.726Z,39.82
2017-04-14T03:54:31.750Z,39.82
2017-04-14T03:55:31.789Z,40.01
2017-04-14T03:56:31.857Z,40.01
2017-04-14T03:57:31.829Z,39.91
2017-04-14T03:58:31.863Z,40.01
2017-04-14T03:59:31.896Z,40.01
2017-04-14T04:00:31.612Z,39.62
2017-04-14T04:01:31.941Z,39.91
2017-04-14T04:02:31.969Z,39.82
2017-04-14T04:03:31.686Z,39.91
2017-04-14T04:04:32.023Z,39.91
2017-04-14T04:05:31.742Z,39.82
2017-04-14T04:06:32.075Z,39.91
2017-04-14T04:07:32.102Z,39.91
2017-04-14T04:08:32.132Z,39.62
2017-04-14T04:09:32.159Z,39.62
2017-04-14T04:10:32.184Z,39.82
2017-04-14T04:11:31.900Z,39.72
2017-04-14T04:12:32.237Z,39.91
2017-04-14T04:13:31.949Z,39.62
2017-04-14T04:14:32.295Z,39.91
2017-04-14T04:15:32.323Z,40.01
2017-04-14T04:16:32.036Z,39.91
2017-04-14T04:17:32.371Z,39.82
2017-04-14T04:18:32.406Z,39.72
2017-04-14T04:19:32.421Z,39.62
2017-04-14T04:20:32.455Z,39.72
2017-04-14T04:21:32.485Z,39.72
2017-04-14T04:22:32.197Z,39.72
2017-04-14T04:23:32.535Z,39.82
2017-04-14T04:24:32.561Z,39.72
2017-04-14T04:25:32.595Z,39.72
2017-04-14T04:26:32.616Z,40.01
2017-04-14T04:27:32.645Z,39.62
2017-04-14T04:28:32.673Z,39.82
2017-04-14T04:29:32.698Z,39.62
2017-04-14T04:30:32.726Z,39.82
2017-04-14T04:31:32.442Z,39.91
2017-04-14T04:32:32.817Z,39.72
2017-04-14T04:33:32.802Z,39.72
2017-04-14T04:34:32.834Z,40.01
2017-04-14T04:35:33.114Z,40.01
2017-04-14T04:36:32.887Z,40.01
2017-04-14T04:37:32.915Z,40.2
2017-04-14T04:38:32.937Z,39.82
2017-04-14T04:39:32.976Z,40.2
2017-04-14T04:40:33.247Z,40.01
2017-04-14T04:41:33.026Z,39.82
2017-04-14T04:42:33.050Z,40.01
2017-04-14T04:43:33.076Z,40.01
2017-04-14T04:44:33.104Z,40.01
2017-04-14T04:45:33.381Z,40.03
2017-04-14T04:46:33.159Z,40.01
2017-04-14T04:47:32.871Z,40.01
2017-04-14T04:48:33.212Z,40.11
2017-04-14T04:49:33.237Z,39.91
2017-04-14T04:50:33.517Z,40.01
2017-04-14T04:51:33.290Z,39.91
2017-04-14T04:52:33.319Z,40.01
2017-04-14T04:53:33.349Z,40.11
2017-04-14T04:54:33.373Z,40.12
2017-04-14T04:55:33.342Z,40.03
2017-04-14T04:56:33.427Z,39.91
2017-04-14T04:57:33.456Z,40.03
2017-04-14T04:58:33.168Z,39.94
2017-04-14T04:59:33.504Z,40.03
2017-04-14T05:00:33.788Z,39.84
2017-04-14T05:01:33.565Z,40.32
2017-04-14T05:02:33.591Z,40.22
2017-04-14T05:03:33.615Z,39.94
2017-04-14T05:04:33.341Z,39.64
2017-04-14T05:05:33.920Z,39.84
2017-04-14T05:06:33.702Z,39.64
2017-04-14T05:07:33.723Z,39.74
2017-04-14T05:08:33.752Z,39.94
2017-04-14T05:09:33.781Z,39.64
2017-04-14T05:10:34.088Z,39.84
2017-04-14T05:11:33.834Z,39.84
2017-04-14T05:12:33.858Z,39.74
2017-04-14T05:13:33.883Z,39.74
2017-04-14T05:14:33.911Z,39.94
2017-04-14T05:15:33.881Z,39.94
2017-04-14T05:16:33.654Z,40.05
2017-04-14T05:17:33.995Z,39.95
2017-04-14T05:18:34.024Z,40.05
2017-04-14T05:19:34.051Z,39.94
2017-04-14T05:20:34.325Z,39.86
2017-04-14T05:21:33.793Z,40.05
2017-04-14T05:22:34.130Z,40.05
2017-04-14T05:23:34.150Z,40.15
2017-04-14T05:24:34.183Z,39.86
2017-04-14T05:25:34.212Z,39.86
2017-04-14T05:26:34.245Z,40.15
2017-04-14T05:27:34.266Z,40.15
2017-04-14T05:28:34.299Z,39.86
2017-04-14T05:29:34.319Z,40.15
2017-04-14T05:30:34.341Z,39.95
2017-04-14T05:31:34.377Z,39.76
2017-04-14T05:32:34.401Z,39.86
2017-04-14T05:33:34.430Z,39.76
2017-04-14T05:34:34.455Z,39.66
2017-04-14T05:35:34.487Z,39.47
2017-04-14T05:36:34.509Z,39.28
2017-04-14T05:37:34.222Z,39.28
2017-04-14T05:38:34.256Z,39.47
2017-04-14T05:39:34.596Z,39.18
2017-04-14T05:40:34.611Z,39.57
2017-04-14T05:41:34.337Z,39.57
2017-04-14T05:42:34.681Z,39.57
2017-04-14T05:43:34.703Z,39.37
2017-04-14T05:44:34.420Z,39.09
2017-04-14T05:45:34.756Z,39.09
2017-04-14T05:46:34.782Z,39.47
2017-04-14T05:47:34.812Z,39.47
2017-04-14T05:48:34.841Z,39.37
2017-04-14T05:49:34.867Z,39.37
2017-04-14T05:50:34.579Z,39.37
2017-04-14T05:51:34.609Z,39.37
2017-04-14T05:52:34.637Z,39.37
2017-04-14T05:53:34.662Z,39.18
2017-04-14T05:54:34.993Z,39.47
2017-04-14T05:55:34.720Z,39.57
2017-04-14T05:56:35.067Z,39.09
2017-04-14T05:57:35.102Z,39.18
2017-04-14T05:58:35.114Z,39.01
2017-04-14T05:59:35.134Z,39.01
2017-04-14T06:00:35.164Z,39.37
2017-04-14T06:01:35.193Z,39.39
2017-04-14T06:02:35.221Z,39.28
2017-04-14T06:03:35.250Z,39.28
2017-04-14T06:04:35.271Z,39.28
2017-04-14T06:05:35.304Z,38.99
2017-04-14T06:06:35.021Z,39.09
2017-04-14T06:07:35.356Z,39.29
2017-04-14T06:08:35.074Z,39.09
2017-04-14T06:09:35.415Z,39.11
2017-04-14T06:10:35.441Z,39.11
2017-04-14T06:11:35.407Z,38.81
2017-04-14T06:12:35.189Z,38.81
2017-04-14T06:13:35.209Z,38.81
2017-04-14T06:14:35.549Z,38.81
2017-04-14T06:15:35.574Z,38.91
2017-04-14T06:16:35.856Z,39.01
2017-04-14T06:17:35.632Z,39.11
2017-04-14T06:18:35.665Z,38.91
2017-04-14T06:19:35.694Z,39.2
2017-04-14T06:20:35.403Z,38.81
2017-04-14T06:21:35.990Z,38.71
2017-04-14T06:22:35.773Z,38.62
2017-04-14T06:23:35.797Z,38.62
2017-04-14T06:24:35.825Z,38.71
2017-04-14T06:25:35.539Z,38.62
2017-04-14T06:26:35.812Z,39.01
2017-04-14T06:27:35.909Z,38.71
2017-04-14T06:28:35.937Z,38.81
2017-04-14T06:29:35.958Z,38.81
2017-04-14T06:30:35.678Z,39.01
2017-04-14T06:31:36.270Z,39.01
2017-04-14T06:32:36.056Z,39.39
2017-04-14T06:33:36.076Z,39.01
2017-04-14T06:34:36.100Z,38.81
2017-04-14T06:35:36.129Z,38.53
2017-04-14T06:36:36.411Z,38.71
2017-04-14T06:37:36.182Z,38.91
2017-04-14T06:38:36.217Z,38.71
2017-04-14T06:39:36.236Z,39.01
2017-04-14T06:40:36.265Z,38.81
2017-04-14T06:41:36.294Z,38.91
2017-04-14T06:42:36.319Z,38.81
2017-04-14T06:43:36.367Z,38.71
2017-04-14T06:44:36.377Z,38.91
2017-04-14T06:45:36.084Z,38.81
2017-04-14T06:46:36.425Z,38.81
2017-04-14T06:47:36.454Z,38.81
2017-04-14T06:48:36.487Z,38.81
2017-04-14T06:49:36.524Z,38.81
2017-04-14T06:50:36.537Z,38.74
2017-04-14T06:51:36.602Z,38.74
2017-04-14T06:52:36.605Z,38.93
2017-04-14T06:53:36.624Z,38.74
2017-04-14T06:54:36.340Z,38.45
2017-04-14T06:55:36.681Z,39.03
2017-04-14T06:56:36.710Z,39.03
2017-04-14T06:57:36.419Z,39.12
2017-04-14T06:58:36.769Z,38.74
2017-04-14T06:59:36.792Z,38.83
2017-04-14T07:00:36.814Z,38.83
2017-04-14T07:01:36.843Z,38.83
2017-04-14T07:02:36.871Z,38.83
2017-04-14T07:03:36.898Z,38.74
2017-04-14T07:04:36.924Z,38.83
2017-04-14T07:05:36.645Z,39.03
2017-04-14T07:06:36.664Z,38.93
2017-04-14T07:07:36.699Z,38.91
2017-04-14T07:08:37.039Z,38.93
2017-04-14T07:09:36.760Z,38.74
2017-04-14T07:10:37.093Z,38.74
2017-04-14T07:11:37.121Z,38.81
2017-04-14T07:12:36.836Z,38.81
2017-04-14T07:13:36.867Z,38.91
2017-04-14T07:14:36.892Z,38.81
2017-04-14T07:15:36.920Z,38.81
2017-04-14T07:16:37.260Z,38.81
2017-04-14T07:17:36.978Z,39.01
2017-04-14T07:18:36.997Z,39.01
2017-04-14T07:19:37.342Z,38.91
2017-04-14T07:20:37.372Z,39.03
2017-04-14T07:21:37.080Z,38.54
2017-04-14T07:22:37.425Z,38.35
2017-04-14T07:23:37.454Z,38.06
2017-04-14T07:24:37.481Z,38.54
2017-04-14T07:25:37.507Z,38.25
2017-04-14T07:26:37.582Z,38.25
2017-04-14T07:27:37.565Z,38.06
2017-04-14T07:28:37.594Z,38.45
2017-04-14T07:29:37.306Z,38.45
2017-04-14T07:30:37.648Z,38.54
2017-04-14T07:31:37.672Z,37.96
2017-04-14T07:32:37.696Z,38.25
2017-04-14T07:33:37.729Z,38.06
2017-04-14T07:34:37.757Z,38.16
2017-04-14T07:35:37.788Z,38.16
2017-04-14T07:36:37.815Z,37.77
2017-04-14T07:37:37.839Z,37.67
2017-04-14T07:38:37.870Z,38.16
2017-04-14T07:39:37.897Z,37.96
2017-04-14T07:40:37.924Z,38.45
2017-04-14T07:41:37.636Z,38.16
2017-04-14T07:42:37.980Z,38.45
2017-04-14T07:43:38.008Z,38.45
2017-04-14T07:44:38.039Z,38.64
2017-04-14T07:45:38.062Z,39.03
2017-04-14T07:46:38.093Z,38.25
2017-04-14T07:47:38.121Z,38.54
2017-04-14T07:48:38.151Z,39.03
2017-04-14T07:49:38.182Z,38.83
2017-04-14T07:50:38.210Z,39.03
2017-04-14T07:51:38.228Z,38.83
2017-04-14T07:52:38.508Z,38.83
2017-04-14T07:53:38.279Z,39.03
2017-04-14T07:54:38.314Z,38.83
2017-04-14T07:55:38.343Z,39.03
2017-04-14T07:56:38.367Z,38.83
2017-04-14T07:57:38.647Z,38.83
2017-04-14T07:58:38.426Z,38.74
2017-04-14T07:59:38.454Z,38.74
2017-04-14T08:00:38.478Z,39.03
2017-04-14T08:01:38.503Z,38.18
2017-04-14T08:02:38.789Z,38.18
2017-04-14T08:03:38.565Z,37.4
2017-04-14T08:04:38.587Z,37.04
2017-04-14T08:05:38.618Z,36.47
2017-04-14T08:06:38.338Z,35.81
2017-04-14T08:07:38.923Z,35.35
2017-04-14T08:08:38.704Z,35.44
2017-04-14T08:09:38.733Z,34.96
2017-04-14T08:10:38.754Z,35.15
2017-04-14T08:11:38.786Z,35.25
2017-04-14T08:12:38.756Z,35.73
2017-04-14T08:13:38.844Z,35.62
2017-04-14T08:14:38.561Z,35.91
2017-04-14T08:15:38.894Z,36
2017-04-14T08:16:38.927Z,35.89
2017-04-14T08:17:39.208Z,36.18
2017-04-14T08:18:38.985Z,35.99
2017-04-14T08:19:39.005Z,36.08
2017-04-14T08:20:39.034Z,36.47
2017-04-14T08:21:39.066Z,36.28
2017-04-14T08:22:39.352Z,36.76
2017-04-14T08:23:39.129Z,36.38
2017-04-14T08:24:39.144Z,36.38
2017-04-14T08:25:39.178Z,36.47
2017-04-14T08:26:39.208Z,36.55
2017-04-14T08:27:39.235Z,36.65
2017-04-14T08:28:39.265Z,36.16
2017-04-14T08:29:38.980Z,36.26
2017-04-14T08:30:39.309Z,36.46
2017-04-14T08:31:39.341Z,36.46
2017-04-14T08:32:39.372Z,36.36
2017-04-14T08:33:39.408Z,36.26
2017-04-14T08:34:39.428Z,36.44
2017-04-14T08:35:39.448Z,36.24
2017-04-14T08:36:39.493Z,36.36
2017-04-14T08:37:39.514Z,36.34
2017-04-14T08:38:39.540Z,36.53
2017-04-14T08:39:39.576Z,36.34
2017-04-14T08:40:39.591Z,36.05
2017-04-14T08:41:39.313Z,36.34
2017-04-14T08:42:39.343Z,36.44
2017-04-14T08:43:39.683Z,36.15
2017-04-14T08:44:39.400Z,36.34
2017-04-14T08:45:39.732Z,36.24
2017-04-14T08:46:39.765Z,35.86
2017-04-14T08:47:39.794Z,35.95
2017-04-14T08:48:39.826Z,36.05
2017-04-14T08:49:39.536Z,35.86
2017-04-14T08:50:39.881Z,35.86
2017-04-14T08:51:39.591Z,35.76
2017-04-14T08:52:39.615Z,35.66
2017-04-14T08:53:39.962Z,36.05
2017-04-14T08:54:39.991Z,35.95
2017-04-14T08:55:40.021Z,35.66
2017-04-14T08:56:40.041Z,35.86
2017-04-14T08:57:40.076Z,35.76
2017-04-14T08:58:40.100Z,35.76
2017-04-14T08:59:40.132Z,35.95
2017-04-14T09:00:40.204Z,35.86
2017-04-14T09:01:40.190Z,35.95
2017-04-14T09:02:40.218Z,35.47
2017-04-14T09:03:40.242Z,35.76
2017-04-14T09:04:40.271Z,35.86
2017-04-14T09:05:40.300Z,35.86
2017-04-14T09:06:40.332Z,35.95
2017-04-14T09:07:40.353Z,35.95
2017-04-14T09:08:40.383Z,35.66
2017-04-14T09:09:40.403Z,36.44
2017-04-14T09:10:40.436Z,36.15
2017-04-14T09:11:40.488Z,36.44
2017-04-14T09:12:40.184Z,35.95
2017-04-14T09:13:40.487Z,36.53
2017-04-14T09:14:40.234Z,36.72
2017-04-14T09:15:40.579Z,36.72
2017-04-14T09:16:40.296Z,36.82
2017-04-14T09:17:40.645Z,36.63
2017-04-14T09:18:40.918Z,36.72
2017-04-14T09:19:40.379Z,36.63
2017-04-14T09:20:40.719Z,36.53
2017-04-14T09:21:40.436Z,36.63
2017-04-14T09:22:40.777Z,36.72
2017-04-14T09:23:40.746Z,36.34
2017-04-14T09:24:40.829Z,36.26
2017-04-14T09:25:40.863Z,36.07
2017-04-14T09:26:40.575Z,36.46
2017-04-14T09:27:40.921Z,36.46
2017-04-14T09:28:41.192Z,36.07
2017-04-14T09:29:40.975Z,36.07
2017-04-14T09:30:41.006Z,35.88
2017-04-14T09:31:41.023Z,34.04
2017-04-14T09:32:41.061Z,34.42
2017-04-14T09:33:41.029Z,33.45
2017-04-14T09:34:41.109Z,33.65
2017-04-14T09:35:41.137Z,33.17
2017-04-14T09:36:41.170Z,33.07
2017-04-14T09:37:41.201Z,32.39
2017-04-14T09:38:41.484Z,32.38
2017-04-14T09:39:41.257Z,32.67
2017-04-14T09:40:41.287Z,33.25
2017-04-14T09:41:41.310Z,33.15
2017-04-14T09:42:41.027Z,33.44
2017-04-14T09:43:41.364Z,33.25
2017-04-14T09:44:41.393Z,33.73
2017-04-14T09:45:41.429Z,34.21
2017-04-14T09:46:41.451Z,34.02
2017-04-14T09:47:41.482Z,33.92
2017-04-14T09:48:41.512Z,33.44
2017-04-14T09:49:41.225Z,33.63
2017-04-14T09:50:41.565Z,34.02
2017-04-14T09:51:41.591Z,32.57
2017-04-14T09:52:41.626Z,32.76
2017-04-14T09:53:41.644Z,32.18
2017-04-14T09:54:41.374Z,32.86
2017-04-14T09:55:41.709Z,33.25
2017-04-14T09:56:41.426Z,33.92
2017-04-14T09:57:41.766Z,33.73
2017-04-14T09:58:41.783Z,33.25
2017-04-14T09:59:41.821Z,33.15
2017-04-14T10:00:41.849Z,33.25
2017-04-14T10:01:41.878Z,33.15
2017-04-14T10:02:41.601Z,34.02
2017-04-14T10:03:41.624Z,34.41
2017-04-14T10:04:41.956Z,32.47
2017-04-14T10:05:41.988Z,32.57
2017-04-14T10:06:42.019Z,32.57
2017-04-14T10:07:42.046Z,32.38
2017-04-14T10:08:42.076Z,32.47
2017-04-14T10:09:42.100Z,33.15
2017-04-14T10:10:42.136Z,32.86
2017-04-14T10:11:42.158Z,32.86
2017-04-14T10:12:42.186Z,32.67
2017-04-14T10:13:42.211Z,33.05
2017-04-14T10:14:42.243Z,32.38
2017-04-14T10:15:42.316Z,32.96
2017-04-14T10:16:42.303Z,32.67
2017-04-14T10:17:42.014Z,32.86
2017-04-14T10:18:42.355Z,32.86
2017-04-14T10:19:42.384Z,32.38
2017-04-14T10:20:42.413Z,33.05
2017-04-14T10:21:42.434Z,32.18
2017-04-14T10:22:42.467Z,32.38
2017-04-14T10:23:42.535Z,31.89
2017-04-14T10:24:42.531Z,31.89
2017-04-14T10:25:42.551Z,31.99
2017-04-14T10:26:42.589Z,32.18
2017-04-14T10:27:42.609Z,32.18
2017-04-14T10:28:42.643Z,31.89
2017-04-14T10:29:42.667Z,32.18
2017-04-14T10:30:42.400Z,32.47
2017-04-14T10:31:42.725Z,32.38
2017-04-14T10:32:42.750Z,32.09
2017-04-14T10:33:42.466Z,32.09
2017-04-14T10:34:42.495Z,31.6
2017-04-14T10:35:42.522Z,32.09
2017-04-14T10:36:42.868Z,32.57
2017-04-14T10:37:42.894Z,32.47
2017-04-14T10:38:42.926Z,32.47
2017-04-14T10:39:42.951Z,31.99
2017-04-14T10:40:42.979Z,32.47
2017-04-14T10:41:43.009Z,32.76
2017-04-14T10:42:43.033Z,32.86
2017-04-14T10:43:43.062Z,33.44
2017-04-14T10:44:43.091Z,32.67
2017-04-14T10:45:43.119Z,32.76
2017-04-14T10:46:43.148Z,32.28
2017-04-14T10:47:43.177Z,33.05
2017-04-14T10:48:42.894Z,32.96
2017-04-14T10:49:43.231Z,33.17
2017-04-14T10:50:43.258Z,32.76
2017-04-14T10:51:43.287Z,32.67
2017-04-14T10:52:43.000Z,32.97
2017-04-14T10:53:43.342Z,32.68
2017-04-14T10:54:43.618Z,32.29
2017-04-14T10:55:43.401Z,31.43
2017-04-14T10:56:43.427Z,32.01
2017-04-14T10:57:43.148Z,32.39
2017-04-14T10:58:43.489Z,32.68
2017-04-14T10:59:43.761Z,34.02
2017-04-14T11:00:43.546Z,32.97
2017-04-14T11:01:43.572Z,32.57
2017-04-14T11:02:43.604Z,32.18
2017-04-14T11:03:43.627Z,31.99
2017-04-14T11:04:43.910Z,31.89
2017-04-14T11:05:43.374Z,32.86
2017-04-14T11:06:43.716Z,32.76
2017-04-14T11:07:43.739Z,32.86
2017-04-14T11:08:43.461Z,32.67
2017-04-14T11:09:43.740Z,32.76
2017-04-14T11:10:43.830Z,32.38
2017-04-14T11:11:43.540Z,33.07
2017-04-14T11:12:43.888Z,32.49
2017-04-14T11:13:43.612Z,32.01
2017-04-14T11:14:44.196Z,32.01
2017-04-14T11:15:43.659Z,32.39
2017-04-14T11:16:44.002Z,32.76
2017-04-14T11:17:43.715Z,33.26
2017-04-14T11:18:44.053Z,33.17
2017-04-14T11:19:44.332Z,33.45
2017-04-14T11:20:44.112Z,33.07
2017-04-14T11:21:44.143Z,32.68
2017-04-14T11:22:44.171Z,33.17
2017-04-14T11:23:43.889Z,33.17
2017-04-14T11:24:44.483Z,33.45
2017-04-14T11:25:44.249Z,33.45
2017-04-14T11:26:43.973Z,33.45
2017-04-14T11:27:44.007Z,32.87
2017-04-14T11:28:44.343Z,31.91
2017-04-14T11:29:44.371Z,31.43
2017-04-14T11:30:44.085Z,31.33
2017-04-14T11:31:44.430Z,31.91
2017-04-14T11:32:44.460Z,32.01
2017-04-14T11:33:44.492Z,32.21
2017-04-14T11:34:44.205Z,32.21
2017-04-14T11:35:44.549Z,32.51
2017-04-14T11:36:44.573Z,33.18
2017-04-14T11:37:44.602Z,33.18
2017-04-14T11:38:44.630Z,33.09
2017-04-14T11:39:44.656Z,32.89
2017-04-14T11:40:44.377Z,33.28
2017-04-14T11:41:44.713Z,33.28
2017-04-14T11:42:44.750Z,33.28
2017-04-14T11:43:44.463Z,33.57
2017-04-14T11:44:44.799Z,32.79
2017-04-14T11:45:44.836Z,32.51
2017-04-14T11:46:44.857Z,32.7
2017-04-14T11:47:44.579Z,31.05
2017-04-14T11:48:44.918Z,30.38
2017-04-14T11:49:44.952Z,30
2017-04-14T11:50:44.665Z,29.61
2017-04-14T11:51:45.006Z,30.58
2017-04-14T11:52:45.032Z,30.6
2017-04-14T11:53:45.066Z,30.69
2017-04-14T11:54:45.092Z,30.89
2017-04-14T11:55:45.121Z,31.18
2017-04-14T11:56:45.157Z,31.18
2017-04-14T11:57:45.185Z,31.09
2017-04-14T11:58:45.204Z,30.99
2017-04-14T11:59:45.239Z,30.69
2017-04-14T12:00:45.268Z,31.18
2017-04-14T12:01:45.297Z,30.99
2017-04-14T12:02:45.043Z,30.6
2017-04-14T12:03:45.359Z,30.6
2017-04-14T12:04:45.391Z,31.37
2017-04-14T12:05:45.416Z,31.47
2017-04-14T12:06:45.439Z,32.06
2017-04-14T12:07:45.158Z,31.96
2017-04-14T12:08:45.194Z,32.34
2017-04-14T12:09:45.224Z,31.76
2017-04-14T12:10:45.251Z,31.86
2017-04-14T12:11:45.594Z,31.57
2017-04-14T12:12:45.621Z,31.57
2017-04-14T12:13:45.650Z,31.47
2017-04-14T12:14:45.682Z,31.96
2017-04-14T12:15:45.394Z,31.47
2017-04-14T12:16:45.741Z,31.47
2017-04-14T12:17:45.448Z,31.18
2017-04-14T12:18:45.802Z,31.1
2017-04-14T12:19:45.519Z,31.59
2017-04-14T12:20:45.864Z,30.71
2017-04-14T12:21:45.892Z,30.81
2017-04-14T12:22:45.913Z,31.12
2017-04-14T12:23:45.637Z,30.92
2017-04-14T12:24:45.665Z,30.73
2017-04-14T12:25:46.007Z,30.54
2017-04-14T12:26:46.040Z,30.73
2017-04-14T12:27:45.748Z,30.73
2017-04-14T12:28:46.102Z,30.63
2017-04-14T12:29:46.129Z,30.63
2017-04-14T12:30:46.161Z,30.54
2017-04-14T12:31:46.187Z,30.63
2017-04-14T12:32:46.221Z,30.54
2017-04-14T12:33:46.247Z,29.47
2017-04-14T12:34:46.279Z,30.34
2017-04-14T12:35:46.000Z,30.92
2017-04-14T12:36:46.340Z,31.02
2017-04-14T12:37:46.408Z,31.2
2017-04-14T12:38:46.136Z,31.1
2017-04-14T12:39:46.427Z,31.78
2017-04-14T12:40:46.706Z,32.36
2017-04-14T12:41:46.175Z,32.46
2017-04-14T12:42:46.520Z,32.26
2017-04-14T12:43:46.548Z,32.24
2017-04-14T12:44:46.576Z,32.44
2017-04-14T12:45:46.858Z,32.24
2017-04-14T12:46:46.635Z,32.24
2017-04-14T12:47:46.668Z,32.73
2017-04-14T12:48:46.692Z,32.92
2017-04-14T12:49:46.727Z,32.54
2017-04-14T12:50:47.006Z,33.22
2017-04-14T12:51:46.827Z,32.44
2017-04-14T12:52:46.814Z,32.34
2017-04-14T12:53:46.849Z,32.44